Time;durP1;ratioP1;P1;durP2;ratioP2;P2;SDS_P1;SDS_P2;PMS_P1;PMS_P2;Temp;Humidity;BMP_temperature;BMP_pressure;BME280_temperature;BME280_humidity;BME280_pressure;Samples;Min_cycle;Max_cycle;Signal;HPM_P1;HPM_P2
2023/11/11 00:00:47;;;;;;;9.48;4.70;;;;;;;6.02;82.34;99543.13;5035757;28;20090;-37
2023/11/11 00:03:15;;;;;;;7.30;3.75;;;;;;;6.04;81.99;99547.38;5021153;28;20041;-37
2023/11/11 00:05:44;;;;;;;6.90;3.95;;;;;;;6.06;82.12;99535.28;5034875;28;20517;-37
2023/11/11 00:08:10;;;;;;;7.25;4.53;;;;;;;6.26;81.77;99574.50;5042158;28;20048;-36
2023/11/11 00:10:36;;;;;;;5.88;3.60;;;;;;;6.24;81.75;99553.00;5047060;28;20525;-37
2023/11/11 00:13:05;;;;;;;8.40;4.45;;;;;;;6.31;81.85;99570.09;5030887;28;20099;-37
2023/11/11 00:15:33;;;;;;;6.70;4.22;;;;;;;6.36;81.24;99570.00;5029023;28;20041;-38
2023/11/11 00:17:59;;;;;;;9.93;5.18;;;;;;;6.38;81.56;99556.16;5032907;28;20041;-37
2023/11/11 00:20:26;;;;;;;9.43;4.97;;;;;;;6.42;81.50;99562.13;5049763;28;20077;-38
2023/11/11 00:22:52;;;;;;;11.52;4.60;;;;;;;6.47;81.39;99546.56;5032509;28;20045;-37
2023/11/11 00:25:18;;;;;;;9.27;4.32;;;;;;;6.49;80.89;99552.53;5047919;28;20049;-37
2023/11/11 00:27:45;;;;;;;9.63;3.88;;;;;;;6.49;81.27;99560.28;5025513;28;20535;-39
2023/11/11 00:30:13;;;;;;;10.57;5.10;;;;;;;6.53;81.14;99561.94;5037265;28;20037;-38
2023/11/11 00:32:40;;;;;;;6.30;3.67;;;;;;;6.51;80.94;99561.09;5041702;28;20041;-38
2023/11/11 00:35:08;;;;;;;8.45;4.80;;;;;;;6.49;80.88;99543.03;5031433;28;20712;-37
2023/11/11 00:37:35;;;;;;;5.28;2.28;;;;;;;6.52;80.90;99552.47;5031271;28;20045;-37
2023/11/11 00:40:01;;;;;;;8.52;3.47;;;;;;;6.51;80.75;99546.44;5031036;28;20513;-36
2023/11/11 00:42:32;;;;;;;8.93;4.05;;;;;;;6.50;80.60;99555.06;5038814;28;20526;-38
2023/11/11 00:44:59;;;;;;;9.55;4.93;;;;;;;6.47;81.13;99547.41;5033065;28;20040;-37
2023/11/11 00:47:25;;;;;;;7.68;4.25;;;;;;;6.48;81.44;99538.78;5047510;28;20041;-38
2023/11/11 00:49:52;;;;;;;7.53;4.38;;;;;;;6.45;81.74;99538.81;5031372;28;20110;-38
2023/11/11 00:52:19;;;;;;;9.93;4.03;;;;;;;6.45;81.53;99543.13;5032028;28;20041;-37
2023/11/11 00:54:47;;;;;;;11.90;5.75;;;;;;;6.48;81.81;99545.69;5030878;28;20052;-39
2023/11/11 00:57:14;;;;;;;13.23;5.90;;;;;;;6.44;81.98;99533.72;5035625;28;20041;-37
2023/11/11 00:59:40;;;;;;;7.55;4.45;;;;;;;6.42;82.20;99535.47;5030671;28;20413;-38
2023/11/11 01:02:06;;;;;;;6.90;4.40;;;;;;;6.37;81.92;99518.34;5052413;28;20471;-37
2023/11/11 01:04:32;;;;;;;10.30;4.28;;;;;;;6.39;82.30;99526.88;5042835;28;20103;-37
2023/11/11 01:06:59;;;;;;;10.45;5.35;;;;;;;6.27;82.37;99493.59;5036908;28;20060;-38
2023/11/11 01:09:25;;;;;;;7.97;4.85;;;;;;;6.47;82.07;99533.63;5052167;28;20041;-37
2023/11/11 01:11:51;;;;;;;7.40;4.07;;;;;;;6.40;82.59;99512.25;5051562;28;20107;-37
2023/11/11 01:14:17;;;;;;;9.85;4.63;;;;;;;6.42;82.28;99527.72;5038311;28;20049;-38
2023/11/11 01:16:43;;;;;;;10.93;5.88;;;;;;;6.40;82.45;99512.25;5036877;28;20706;-38
2023/11/11 01:19:10;;;;;;;12.25;6.25;;;;;;;6.52;82.81;99529.22;5048161;28;20539;-38
2023/11/11 01:21:37;;;;;;;11.65;5.90;;;;;;;6.51;82.42;99525.78;5039523;28;20123;-38
2023/11/11 01:24:04;;;;;;;10.60;4.82;;;;;;;6.50;82.43;99525.81;5035250;28;20802;-37
2023/11/11 01:26:30;;;;;;;9.38;4.70;;;;;;;6.50;82.45;99525.81;5051205;28;20424;-37
2023/11/11 01:28:56;;;;;;;8.98;4.70;;;;;;;6.29;82.23;99491.81;5034747;28;20036;-38
2023/11/11 01:31:23;;;;;;;12.57;5.78;;;;;;;6.33;82.38;99503.75;5044279;28;20041;-38
2023/11/11 01:33:49;;;;;;;11.40;5.40;;;;;;;6.47;82.37;99521.59;5036522;28;20037;-37
2023/11/11 01:36:15;;;;;;;7.38;4.10;;;;;;;6.51;82.45;99530.09;5050170;28;20105;-36
2023/11/11 01:38:41;;;;;;;10.05;5.25;;;;;;;6.49;82.58;99524.97;5034210;28;20057;-37
2023/11/11 01:41:08;;;;;;;8.20;4.43;;;;;;;6.52;82.44;99526.66;5058443;28;20029;-36
2023/11/11 01:43:34;;;;;;;6.63;4.32;;;;;;;6.50;82.42;99536.16;5034720;28;20041;-37
2023/11/11 01:46:02;;;;;;;11.75;4.53;;;;;;;6.47;82.40;99520.72;5035259;28;20047;-37
2023/11/11 01:48:30;;;;;;;10.70;6.35;;;;;;;6.42;82.16;99509.66;5035849;28;20036;-37
2023/11/11 01:50:56;;;;;;;8.60;4.25;;;;;;;6.48;82.28;99522.44;5035450;28;20099;-37
2023/11/11 01:53:24;;;;;;;9.15;4.47;;;;;;;6.51;82.23;99525.78;5035541;28;20037;-40
2023/11/11 01:55:51;;;;;;;9.18;4.55;;;;;;;6.52;82.24;99529.22;5036857;28;20098;-37
2023/11/11 01:58:20;;;;;;;8.50;4.15;;;;;;;6.49;82.22;99529.31;5036783;28;20045;-36
2023/11/11 02:00:47;;;;;;;;;;;;;;;6.49;82.51;99521.56;5042849;28;20045;-39
2023/11/11 02:03:13;;;;;;;13.15;6.50;;;;;;;6.43;82.20;99519.09;5053365;28;19917;-39
2023/11/11 02:05:40;;;;;;;8.25;4.55;;;;;;;6.44;82.52;99524.19;5034561;28;20127;-38
2023/11/11 02:08:07;;;;;;;11.32;5.78;;;;;;;6.32;82.53;99503.81;5032589;28;20064;-38
2023/11/11 02:10:34;;;;;;;13.85;5.65;;;;;;;6.32;82.86;99488.31;5034669;28;20037;-38
2023/11/11 02:13:01;;;;;;;9.07;4.75;;;;;;;6.49;82.61;99518.97;5032772;28;20044;-38
2023/11/11 02:15:28;;;;;;;10.48;5.03;;;;;;;6.45;82.85;99522.47;5049781;28;20047;-37
2023/11/11 02:18:02;;;;;;;9.32;4.32;;;;;;;6.47;82.86;99520.72;5035196;28;20046;-37
2023/11/11 02:20:33;;;;;;;11.00;6.25;;;;;;;6.49;82.54;99519.78;5035162;28;20045;-37
2023/11/11 02:23:03;;;;;;;9.20;4.93;;;;;;;6.50;82.07;99528.41;5037590;28;20049;-37
2023/11/11 02:25:30;;;;;;;5.28;3.13;;;;;;;6.42;82.66;99518.25;5037459;28;20522;-38
2023/11/11 02:27:57;;;;;;;10.90;5.40;;;;;;;6.32;82.59;99496.94;5034402;28;20402;-36
2023/11/11 02:30:23;;;;;;;9.73;5.90;;;;;;;6.53;82.75;99518.03;5035645;28;20098;-37
2023/11/11 02:32:49;;;;;;;10.93;6.15;;;;;;;6.52;82.15;99526.66;5034922;28;20512;-38
2023/11/11 02:35:15;;;;;;;6.18;3.70;;;;;;;6.49;82.46;99524.97;5030629;28;20076;-37
2023/11/11 02:37:41;;;;;;;10.00;5.63;;;;;;;6.31;82.44;99496.94;5038484;28;20041;-38
2023/11/11 02:40:12;;;;;;;9.90;5.82;;;;;;;6.36;82.59;99490.81;5049497;28;20528;-38
2023/11/11 02:42:42;;;;;;;8.85;4.70;;;;;;;6.61;82.11;99510.94;5049207;28;20036;-38
2023/11/11 02:45:09;;;;;;;9.70;5.03;;;;;;;6.45;81.97;99489.75;5054046;28;20048;-38
2023/11/11 02:47:35;;;;;;;11.57;5.80;;;;;;;6.58;81.98;99523.94;5034880;28;20048;-37
2023/11/11 02:50:02;;;;;;;11.38;6.15;;;;;;;6.59;82.20;99517.91;5032072;28;20046;-38
2023/11/11 02:52:31;;;;;;;10.63;5.00;;;;;;;6.62;81.69;99515.25;5032644;28;20525;-38
2023/11/11 02:54:58;;;;;;;11.10;6.18;;;;;;;6.59;81.75;99512.72;5032227;28;21036;-36
2023/11/11 02:57:25;;;;;;;10.05;5.38;;;;;;;6.46;81.51;99486.31;5039668;28;20045;-37
2023/11/11 02:59:51;;;;;;;15.77;6.38;;;;;;;6.62;81.44;99503.19;5031876;28;20041;-37
2023/11/11 03:02:17;;;;;;;9.02;4.35;;;;;;;6.42;81.60;99474.34;5036256;28;20617;-37
2023/11/11 03:04:44;;;;;;;9.85;5.22;;;;;;;6.60;81.75;99506.66;5049160;28;20053;-39
2023/11/11 03:07:11;;;;;;;14.00;6.03;;;;;;;6.60;81.59;99506.66;5033394;28;20509;-38
2023/11/11 03:09:41;;;;;;;13.00;6.45;;;;;;;6.67;81.68;99508.25;5034090;28;20043;-37
2023/11/11 03:12:10;;;;;;;9.75;6.30;;;;;;;6.71;81.63;99505.56;5034531;28;20036;-37
2023/11/11 03:14:37;;;;;;;10.07;5.57;;;;;;;6.72;81.04;99509.84;5046525;28;20469;-38
2023/11/11 03:17:03;;;;;;;10.68;5.22;;;;;;;6.72;81.02;99507.25;5047859;28;20045;-36
2023/11/11 03:19:30;;;;;;;10.45;5.75;;;;;;;6.68;80.90;99503.06;5043177;28;20037;-37
2023/11/11 03:21:56;;;;;;;8.32;5.13;;;;;;;6.63;81.06;99502.31;5024962;28;20056;-37
2023/11/11 03:24:22;;;;;;;13.85;7.43;;;;;;;6.67;81.22;99498.75;5041001;28;20598;-38
2023/11/11 03:26:48;;;;;;;11.80;5.80;;;;;;;6.73;80.94;99510.69;5048612;28;20041;-37
2023/11/11 03:29:14;;;;;;;11.73;5.53;;;;;;;6.55;81.13;99473.19;5049099;28;20377;-39
2023/11/11 03:31:40;;;;;;;11.10;5.80;;;;;;;6.66;81.26;99497.06;5032595;28;20140;-38
2023/11/11 03:34:06;;;;;;;10.25;4.63;;;;;;;6.60;81.42;99494.59;5032100;28;20467;-37
2023/11/11 03:36:33;;;;;;;12.70;6.47;;;;;;;6.57;81.47;99499.84;5033992;28;20053;-38
2023/11/11 03:38:59;;;;;;;8.57;5.03;;;;;;;6.61;81.81;99488.56;5034911;28;20164;-37
2023/11/11 03:41:26;;;;;;;6.07;3.53;;;;;;;6.50;81.46;99481.91;5033781;28;20045;-37
2023/11/11 03:43:54;;;;;;;9.95;5.63;;;;;;;6.44;81.63;99476.91;5032963;28;20099;-37
2023/11/11 03:46:20;;;;;;;10.90;6.10;;;;;;;6.55;82.09;99498.16;5029624;28;20060;-37
2023/11/11 03:48:45;;;;;;;10.43;5.85;;;;;;;6.51;82.20;99493.94;5060505;28;20036;-38
2023/11/11 03:51:11;;;;;;;12.70;6.78;;;;;;;6.53;82.50;99487.88;5032504;28;20041;-38
2023/11/11 03:53:37;;;;;;;14.10;6.03;;;;;;;6.60;82.24;99488.59;5033141;28;20527;-37
2023/11/11 03:56:07;;;;;;;11.50;6.65;;;;;;;6.60;82.19;99488.59;5033481;28;20037;-38
2023/11/11 03:58:35;;;;;;;13.32;6.93;;;;;;;6.57;82.18;99483.50;5032456;28;20045;-39
2023/11/11 04:01:01;;;;;;;13.40;6.85;;;;;;;6.62;82.44;99507.50;5033062;28;20041;-38
2023/11/11 04:03:27;;;;;;;7.75;4.57;;;;;;;6.59;82.01;99497.25;5036144;28;20397;-37
2023/11/11 04:05:53;;;;;;;8.25;4.68;;;;;;;6.51;82.45;99489.63;5033603;28;20473;-37
2023/11/11 04:08:19;;;;;;;12.63;6.45;;;;;;;6.56;82.70;99497.28;5030968;28;20053;-37
2023/11/11 04:10:46;;;;;;;11.18;5.63;;;;;;;6.54;82.46;99506.81;5057644;28;20041;-36
2023/11/11 04:13:13;;;;;;;11.52;5.68;;;;;;;6.46;82.70;99500.94;5017267;28;20508;-38
2023/11/11 04:15:39;;;;;;;7.80;4.80;;;;;;;6.40;82.96;99507.09;5026334;28;20053;-37
2023/11/11 04:18:05;;;;;;;14.55;6.15;;;;;;;6.26;83.53;99481.56;5032367;28;20037;-37
2023/11/11 04:20:31;;;;;;;7.93;4.15;;;;;;;6.44;83.34;99507.91;5035092;28;20401;-38
2023/11/11 04:22:57;;;;;;;10.15;4.88;;;;;;;6.39;83.70;99513.97;5050322;28;20045;-38
2023/11/11 04:25:23;;;;;;;14.75;6.57;;;;;;;6.38;83.69;99506.28;5045395;28;20509;-37
2023/11/11 04:27:49;;;;;;;11.85;6.80;;;;;;;6.38;83.86;99516.59;5046376;28;20051;-37
2023/11/11 04:30:16;;;;;;;12.35;7.05;;;;;;;6.25;84.17;99503.09;5032451;28;20041;-37
2023/11/11 04:32:42;;;;;;;13.85;7.10;;;;;;;6.35;84.24;99517.50;5028427;28;20378;-38
2023/11/11 04:35:08;;;;;;;9.05;6.18;;;;;;;6.32;84.45;99525.31;5029605;28;20577;-37
2023/11/11 04:37:35;;;;;;;11.98;6.30;;;;;;;6.31;84.97;99525.34;5031172;28;20523;-37
2023/11/11 04:40:01;;;;;;;6.65;4.70;;;;;;;6.35;84.65;99526.97;5047308;28;20068;-37
2023/11/11 04:42:33;;;;;;;11.30;6.07;;;;;;;6.33;84.70;99527.00;5032331;28;20110;-37
2023/11/11 04:44:59;;;;;;;12.00;6.50;;;;;;;6.30;84.84;99518.47;5032415;28;20049;-38
2023/11/11 04:47:25;;;;;;;9.18;4.78;;;;;;;6.15;85.23;99480.91;5047193;28;20049;-37
2023/11/11 04:49:51;;;;;;;13.27;5.82;;;;;;;6.39;85.10;99503.66;5031269;28;20045;-39
2023/11/11 04:52:17;;;;;;;13.95;6.32;;;;;;;6.42;84.67;99509.66;5047600;28;20052;-37
2023/11/11 04:54:43;;;;;;;14.27;6.05;;;;;;;6.41;84.91;99503.63;5031480;28;20075;-36
2023/11/11 04:57:09;;;;;;;10.77;5.80;;;;;;;6.53;84.66;99518.03;5028661;28;20094;-37
2023/11/11 04:59:35;;;;;;;14.00;7.18;;;;;;;6.36;84.36;99493.41;5029497;28;20041;-37
2023/11/11 05:02:04;;;;;;;13.73;6.55;;;;;;;6.50;84.54;99518.91;5032870;28;20047;-40
2023/11/11 05:04:31;;;;;;;10.55;5.43;;;;;;;6.52;84.38;99521.47;5035271;28;20489;-37
2023/11/11 05:06:58;;;;;;;13.57;7.10;;;;;;;6.47;84.43;99526.75;5032356;28;20133;-37
2023/11/11 05:09:24;;;;;;;7.90;4.97;;;;;;;6.38;84.19;99519.19;5036193;28;20115;-37
2023/11/11 05:11:50;;;;;;;9.57;4.45;;;;;;;6.44;84.07;99546.63;5036539;28;20037;-37
2023/11/11 05:14:18;;;;;;;15.18;7.75;;;;;;;6.30;84.09;99519.34;5016655;28;20057;-37
2023/11/11 05:16:50;;;;;;;10.13;4.65;;;;;;;6.36;84.58;99539.88;5031614;28;20083;-36
2023/11/11 05:19:24;;;;;;;14.70;7.07;;;;;;;6.33;84.45;99528.75;5027346;28;20045;-36
2023/11/11 05:21:52;;;;;;;13.82;6.40;;;;;;;6.20;84.64;99499.75;5031610;28;20041;-37
2023/11/11 05:24:20;;;;;;;15.02;7.45;;;;;;;6.43;84.73;99525.13;5031492;28;20513;-37
2023/11/11 05:26:46;;;;;;;12.43;6.22;;;;;;;6.47;84.27;99528.47;5031360;28;20037;-37
2023/11/11 05:29:12;;;;;;;8.65;4.25;;;;;;;6.49;84.35;99537.06;5032440;28;20037;-37
2023/11/11 05:31:38;;;;;;;9.50;5.55;;;;;;;6.40;83.95;99540.66;5031067;28;20041;-38
2023/11/11 05:34:04;;;;;;;10.27;4.82;;;;;;;6.36;84.41;99520.94;5036325;28;20040;-37
2023/11/11 05:36:33;;;;;;;10.68;6.50;;;;;;;6.34;84.63;99528.72;5030944;28;20076;-37
2023/11/11 05:39:01;;;;;;;14.63;6.90;;;;;;;6.18;84.65;99503.22;5021301;28;20029;-38
2023/11/11 05:41:29;;;;;;;9.60;5.22;;;;;;;6.39;84.37;99537.22;5030422;28;20084;-37
2023/11/11 05:43:56;;;;;;;20.83;7.00;;;;;;;6.34;85.06;99549.34;5038172;28;20064;-38
2023/11/11 05:46:24;;;;;;;18.35;6.53;;;;;;;6.34;84.89;99539.03;5025984;28;20132;-37
2023/11/11 05:48:51;;;;;;;14.23;7.07;;;;;;;6.41;84.92;99537.19;5056408;28;20033;-37
2023/11/11 05:51:17;;;;;;;15.73;7.93;;;;;;;6.24;84.64;99498.78;5036056;28;20049;-37
2023/11/11 05:53:43;;;;;;;14.90;6.70;;;;;;;6.42;84.73;99536.31;5050853;28;20041;-36
2023/11/11 05:56:13;;;;;;;10.27;5.70;;;;;;;6.45;84.45;99546.56;5034724;28;20049;-37
2023/11/11 05:58:39;;;;;;;14.30;6.40;;;;;;;6.36;85.12;99547.63;5035151;28;20107;-39
2023/11/11 06:01:05;;;;;;;15.02;6.22;;;;;;;6.39;85.20;99547.53;5036940;28;20038;-37
2023/11/11 06:03:32;;;;;;;11.40;5.68;;;;;;;6.43;84.93;99545.78;5028144;28;20558;-38
2023/11/11 06:06:01;;;;;;;14.32;6.68;;;;;;;6.44;85.02;99546.63;5050587;28;20415;-39
2023/11/11 06:08:27;;;;;;;14.82;7.25;;;;;;;6.47;84.72;99543.97;5032218;28;20041;-37
2023/11/11 06:10:53;;;;;;;12.10;5.72;;;;;;;6.30;84.68;99515.91;5032088;28;20509;-38
2023/11/11 06:13:20;;;;;;;8.98;4.82;;;;;;;6.46;84.82;99537.09;5033488;28;20052;-37
2023/11/11 06:15:46;;;;;;;15.05;7.03;;;;;;;6.48;84.87;99548.25;5033493;28;20061;-37
2023/11/11 06:18:12;;;;;;;13.13;5.70;;;;;;;6.33;84.65;99524.41;5034863;28;20064;-38
2023/11/11 06:20:38;;;;;;;18.52;9.05;;;;;;;6.55;84.56;99552.41;5035245;28;20457;-36
2023/11/11 06:23:04;;;;;;;16.48;7.70;;;;;;;6.59;84.11;99551.47;5034003;28;20508;-37
2023/11/11 06:25:33;;;;;;;9.80;5.18;;;;;;;6.57;84.25;99556.66;5034943;28;20104;-39
2023/11/11 06:27:59;;;;;;;17.20;8.02;;;;;;;6.60;84.36;99569.50;5026970;28;20034;-38
2023/11/11 06:30:26;;;;;;;11.80;7.05;;;;;;;6.65;83.77;99578.00;5034270;28;20174;-37
2023/11/11 06:32:52;;;;;;;12.80;7.45;;;;;;;6.66;84.02;99563.38;5030894;28;20128;-39
2023/11/11 06:35:19;;;;;;;15.57;8.27;;;;;;;6.59;83.67;99543.72;5032163;28;20436;-38
2023/11/11 06:37:45;;;;;;;15.13;8.00;;;;;;;6.61;83.50;99540.22;5045059;28;20033;-38
2023/11/11 06:40:12;;;;;;;11.30;4.72;;;;;;;6.74;83.52;99558.91;5033187;28;20045;-37
2023/11/11 06:42:39;;;;;;;13.77;6.00;;;;;;;6.75;83.57;99547.69;5050113;28;20517;-39
2023/11/11 06:45:06;;;;;;;15.40;7.50;;;;;;;6.74;83.48;99554.59;5038463;28;20052;-37
2023/11/11 06:47:33;;;;;;;15.30;7.55;;;;;;;6.79;83.44;99551.91;5037120;28;20041;-39
2023/11/11 06:50:00;;;;;;;16.40;8.73;;;;;;;6.90;83.11;99543.94;5030107;28;20135;-39
2023/11/11 06:52:30;;;;;;;15.98;7.18;;;;;;;6.82;82.66;99521.69;5034067;28;20049;-37
2023/11/11 06:54:56;;;;;;;17.05;7.72;;;;;;;6.79;82.19;99508.84;5030140;28;20725;-38
2023/11/11 06:57:22;;;;;;;15.60;7.45;;;;;;;6.99;81.80;99534.22;5042855;28;20052;-38
2023/11/11 06:59:48;;;;;;;15.95;7.50;;;;;;;7.04;82.03;99536.72;5031842;28;20413;-37
2023/11/11 07:02:14;;;;;;;11.60;6.10;;;;;;;7.01;81.20;99536.78;5033847;28;20041;-40
2023/11/11 07:04:40;;;;;;;13.57;6.47;;;;;;;7.04;81.10;99547.06;5030417;28;20040;-38
2023/11/11 07:07:07;;;;;;;11.32;5.45;;;;;;;6.88;80.83;99509.50;5052446;28;20409;-38
2023/11/11 07:09:38;;;;;;;19.20;9.07;;;;;;;7.08;80.81;99535.75;5053929;28;20118;-38
2023/11/11 07:12:05;;;;;;;16.33;8.32;;;;;;;7.11;80.40;99538.28;5053100;28;20145;-38
2023/11/11 07:14:31;;;;;;;12.55;6.22;;;;;;;7.13;80.34;99542.53;5056460;28;20085;-37
2023/11/11 07:16:57;;;;;;;16.30;8.40;;;;;;;7.22;80.42;99539.72;5056171;28;20460;-37
2023/11/11 07:19:23;;;;;;;16.48;7.15;;;;;;;7.26;80.21;99544.84;5036416;28;20033;-37
2023/11/11 07:21:49;;;;;;;13.27;6.75;;;;;;;7.30;79.54;99544.72;5048712;28;20040;-37
2023/11/11 07:24:15;;;;;;;19.13;8.05;;;;;;;7.36;79.55;99539.41;5057199;28;20511;-37
2023/11/11 07:26:41;;;;;;;15.27;7.63;;;;;;;7.44;79.27;99539.22;5051685;28;20044;-37
2023/11/11 07:29:07;;;;;;;13.80;7.88;;;;;;;7.57;79.09;99545.81;5025345;28;20132;-37
2023/11/11 07:31:33;;;;;;;16.38;8.45;;;;;;;7.41;78.07;99509.13;5052848;28;20048;-37
2023/11/11 07:34:00;;;;;;;25.10;8.40;;;;;;;7.65;78.11;99543.88;5055943;28;20097;-37
2023/11/11 07:36:26;;;;;;;19.42;8.45;;;;;;;7.54;77.76;99512.22;5056739;28;20798;-39
2023/11/11 07:38:53;;;;;;;16.05;7.38;;;;;;;7.68;77.25;99537.78;5053375;28;20048;-38
2023/11/11 07:41:19;;;;;;;14.95;7.82;;;;;;;7.70;77.21;99538.56;5054703;28;20150;-38
2023/11/11 07:43:45;;;;;;;12.80;7.60;;;;;;;7.69;76.99;99534.31;5053842;28;20044;-36
2023/11/11 07:46:12;;;;;;;17.35;7.72;;;;;;;7.67;76.84;99534.34;5055095;28;20049;-38
2023/11/11 07:48:38;;;;;;;16.90;8.43;;;;;;;7.72;76.89;99535.06;5053218;28;20044;-39
2023/11/11 07:51:05;;;;;;;22.67;8.68;;;;;;;7.83;76.52;99548.59;5054908;28;20049;-37
2023/11/11 07:53:31;;;;;;;17.77;8.75;;;;;;;7.83;76.63;99538.25;5054002;28;20045;-37
2023/11/11 07:56:01;;;;;;;18.92;8.00;;;;;;;7.89;76.30;99534.66;5049511;28;20412;-37
2023/11/11 07:58:27;;;;;;;13.65;7.55;;;;;;;7.83;75.87;99552.91;5034119;28;20523;-36
2023/11/11 08:00:53;;;;;;;16.13;7.03;;;;;;;7.52;75.99;99519.22;5050126;28;20048;-37
2023/11/11 08:03:20;;;;;;;21.23;9.02;;;;;;;7.68;76.38;99535.19;5040590;28;20080;-37
2023/11/11 08:05:47;;;;;;;15.60;8.80;;;;;;;7.74;76.05;99542.81;5036071;28;20051;-38
2023/11/11 08:08:13;;;;;;;17.50;8.00;;;;;;;7.79;76.01;99543.53;5045615;28;20046;-37
2023/11/11 08:10:39;;;;;;;19.75;8.45;;;;;;;7.80;75.80;99534.91;5052204;28;20071;-38
2023/11/11 08:13:05;;;;;;;16.38;7.55;;;;;;;7.82;75.63;99540.88;5052876;28;20041;-37
2023/11/11 08:15:31;;;;;;;16.65;8.73;;;;;;;7.86;75.75;99535.56;5026243;28;20544;-39
2023/11/11 08:17:57;;;;;;;15.82;8.13;;;;;;;7.88;75.53;99541.56;5032721;28;20042;-39
2023/11/11 08:20:23;;;;;;;18.08;8.63;;;;;;;7.93;75.25;99538.84;5051367;28;20037;-39
2023/11/11 08:22:49;;;;;;;14.20;8.02;;;;;;;8.04;74.93;99544.59;5033775;28;20076;-38
2023/11/11 08:25:16;;;;;;;17.30;8.50;;;;;;;8.13;74.73;99530.56;5051448;28;20140;-39
2023/11/11 08:27:45;;;;;;;18.85;8.48;;;;;;;8.19;74.24;99513.13;5041708;28;20135;-38
2023/11/11 08:30:11;;;;;;;16.45;8.30;;;;;;;8.61;73.27;99539.59;5046482;28;20042;-40
2023/11/11 08:32:39;;;;;;;20.10;7.53;;;;;;;8.76;72.41;99540.88;5052540;28;20122;-39
2023/11/11 08:35:07;;;;;;;10.30;5.68;;;;;;;8.65;71.72;99537.75;5047054;28;20045;-39
2023/11/11 08:37:34;;;;;;;10.88;5.60;;;;;;;8.36;71.62;99502.31;5049554;28;20046;-38
2023/11/11 08:40:01;;;;;;;15.07;8.02;;;;;;;8.62;71.32;99522.31;5053747;28;20032;-36
2023/11/11 08:42:29;;;;;;;;;;;;;;;8.79;71.46;99527.84;5028696;28;20036;-37
2023/11/11 08:44:58;;;;;;;22.23;9.30;;;;;;;8.86;71.13;99525.03;5037293;28;20406;-38
2023/11/11 08:47:25;;;;;;;19.05;9.18;;;;;;;9.00;70.93;99537.59;5053515;28;20041;-38
2023/11/11 08:49:53;;;;;;;14.15;7.43;;;;;;;8.99;70.56;99530.69;5023402;28;20064;-39
2023/11/11 08:52:21;;;;;;;19.75;8.43;;;;;;;8.83;70.39;99539.81;5043021;28;20040;-39
2023/11/11 08:54:47;;;;;;;17.38;7.82;;;;;;;8.77;70.63;99532.22;5047155;28;20051;-38
2023/11/11 08:57:13;;;;;;;15.95;7.65;;;;;;;8.75;70.94;99534.00;5040949;28;20127;-39
2023/11/11 08:59:39;;;;;;;22.92;8.98;;;;;;;8.74;70.62;99532.31;5049385;28;20603;-39
2023/11/11 09:02:05;;;;;;;16.73;8.77;;;;;;;8.82;70.48;99519.97;5050097;28;20076;-38
2023/11/11 09:04:31;;;;;;;21.25;8.30;;;;;;;8.95;70.61;99523.88;5061837;28;20037;-40
2023/11/11 09:06:57;;;;;;;19.45;8.45;;;;;;;8.92;69.89;99492.88;5048378;28;20068;-39
2023/11/11 09:09:24;;;;;;;21.58;8.73;;;;;;;9.05;69.67;99517.56;5040296;28;20033;-55
2023/11/11 09:11:50;;;;;;;21.50;9.18;;;;;;;8.88;69.20;99497.31;5024497;28;20049;-42
2023/11/11 09:14:16;;;;;;;17.25;8.52;;;;;;;9.01;69.55;99517.66;5052883;28;20068;-40
2023/11/11 09:16:42;;;;;;;18.38;7.40;;;;;;;8.88;69.45;99515.47;5044852;28;20064;-36
2023/11/11 09:19:08;;;;;;;10.82;6.03;;;;;;;8.87;69.56;99523.28;5050268;28;20029;-37
2023/11/11 09:21:38;;;;;;;16.48;8.23;;;;;;;8.83;69.69;99519.94;5041031;28;20539;-37
2023/11/11 09:24:06;;;;;;;22.58;8.82;;;;;;;8.95;69.50;99515.28;5040032;28;20073;-39
2023/11/11 09:26:33;;;;;;;22.40;8.75;;;;;;;9.00;69.04;99509.06;5056344;28;20144;-39
2023/11/11 09:28:59;;;;;;;21.67;9.18;;;;;;;9.10;69.08;99509.63;5035880;28;20064;-38
2023/11/11 09:31:28;;;;;;;16.60;8.27;;;;;;;8.90;69.00;99473.91;5041935;28;20086;-36
2023/11/11 09:34:00;;;;;;;21.73;9.57;;;;;;;9.07;68.82;99499.31;5042283;28;20427;-38
2023/11/11 09:36:29;;;;;;;19.20;8.48;;;;;;;8.95;68.80;99494.53;5042420;28;20040;-37
2023/11/11 09:38:59;;;;;;;15.55;7.68;;;;;;;8.97;69.00;99509.13;5051456;28;20040;-38
2023/11/11 09:41:32;;;;;;;17.73;8.45;;;;;;;8.97;69.06;99500.50;5001470;28;20044;-37
2023/11/11 09:43:58;;;;;;;18.58;8.32;;;;;;;8.81;69.07;99479.38;5046557;28;20044;-38
2023/11/11 09:46:31;;;;;;;19.10;8.50;;;;;;;8.76;68.83;99469.16;5059036;28;20131;-38
2023/11/11 09:48:58;;;;;;;17.23;9.07;;;;;;;8.86;68.98;99474.91;5049891;28;20070;-37
2023/11/11 09:51:27;;;;;;;17.17;8.07;;;;;;;9.11;69.08;99506.97;5030221;28;20045;-37
2023/11/11 09:53:56;;;;;;;17.48;8.30;;;;;;;9.29;68.60;99493.44;5038525;28;20033;-37
2023/11/11 09:56:23;;;;;;;22.52;8.63;;;;;;;9.32;68.14;99501.09;5039495;28;20074;-37
2023/11/11 09:58:52;;;;;;;17.63;8.38;;;;;;;9.32;68.48;99490.72;5053161;28;20068;-37
2023/11/11 10:01:18;;;;;;;18.30;8.07;;;;;;;9.26;67.48;99477.13;5052549;28;20052;-37
2023/11/11 10:03:44;;;;;;;14.60;7.75;;;;;;;9.31;67.75;99490.78;5065863;28;20043;-37
2023/11/11 10:06:10;;;;;;;16.75;7.68;;;;;;;9.31;67.56;99475.22;5055344;28;20045;-36
2023/11/11 10:08:37;;;;;;;12.65;6.68;;;;;;;9.35;67.45;99474.22;5036122;28;20037;-36
2023/11/11 10:11:05;;;;;;;16.35;7.75;;;;;;;9.42;67.16;99470.50;5037879;28;20056;-39
2023/11/11 10:13:32;;;;;;;13.73;6.80;;;;;;;9.55;66.90;99470.97;5028881;28;20091;-34
2023/11/11 10:16:21;;;;;;;14.80;7.68;;;;;;;9.66;66.64;99477.50;5053327;28;20048;-36
2023/11/11 10:18:58;;;;;;;17.48;7.90;;;;;;;9.72;66.74;99479.88;5057831;28;20048;-38
2023/11/11 10:21:25;;;;;;;14.02;6.93;;;;;;;9.72;66.19;99479.88;5066258;28;20128;-37
2023/11/11 10:23:57;;;;;;;15.93;7.57;;;;;;;9.70;66.19;99473.88;5052989;28;20521;-38
2023/11/11 10:26:23;;;;;;;15.02;6.82;;;;;;;9.81;65.37;99470.06;5044970;28;20049;-37
2023/11/11 10:28:50;;;;;;;18.35;6.57;;;;;;;9.85;65.68;99476.84;5046130;28;20040;-37
2023/11/11 10:31:18;;;;;;;12.20;6.00;;;;;;;9.74;65.18;99446.91;5036916;28;20048;-37
2023/11/11 10:33:44;;;;;;;17.85;7.35;;;;;;;9.81;65.15;99457.09;5049416;28;20045;-38
2023/11/11 10:36:11;;;;;;;14.45;7.57;;;;;;;9.90;65.13;99464.53;5040968;28;20053;-36
2023/11/11 10:38:42;;;;;;;14.32;7.70;;;;;;;10.04;65.03;99462.34;5039420;28;20060;-36
2023/11/11 10:41:09;;;;;;;14.73;8.07;;;;;;;10.28;64.89;99461.47;5050189;28;20394;-37
2023/11/11 10:43:35;;;;;;;21.92;7.47;;;;;;;10.24;64.29;99465.09;5030768;28;20091;-39
2023/11/11 10:46:02;;;;;;;14.88;8.00;;;;;;;9.99;64.00;99459.91;5045100;28;20076;-36
2023/11/11 10:48:29;;;;;;;16.90;7.00;;;;;;;9.88;64.61;99456.84;5045500;28;20073;-36
2023/11/11 10:50:56;;;;;;;14.85;6.95;;;;;;;9.52;64.26;99403.59;5032258;28;20045;-38
2023/11/11 10:53:24;;;;;;;17.50;8.40;;;;;;;9.74;64.99;99446.91;5042202;28;20056;-36
2023/11/11 10:55:51;;;;;;;14.38;7.40;;;;;;;9.90;65.05;99438.59;5036651;28;20049;-35
2023/11/11 10:58:17;;;;;;;24.13;8.20;;;;;;;10.42;64.39;99443.59;5033165;28;20044;-36
2023/11/11 11:00:50;;;;;;;15.88;7.20;;;;;;;10.75;63.28;99443.22;5046874;28;20037;-37
2023/11/11 11:03:19;;;;;;;17.33;7.47;;;;;;;11.01;61.89;99443.06;5038595;28;20215;-37
2023/11/11 11:05:55;;;;;;;11.80;6.55;;;;;;;11.14;61.79;99430.41;5047483;28;20045;-35
2023/11/11 11:08:41;;;;;;;12.63;7.00;;;;;;;11.37;61.28;99451.97;5032938;28;20038;-35
2023/11/11 11:11:07;;;;;;;17.98;7.03;;;;;;;11.45;60.53;99449.06;5032412;28;20049;-36
2023/11/11 11:13:38;;;;;;;13.73;6.70;;;;;;;11.18;60.30;99443.22;5050720;28;20091;-36
2023/11/11 11:16:06;;;;;;;15.70;7.50;;;;;;;10.77;60.58;99418.03;5045937;28;20043;-37
2023/11/11 11:18:31;;;;;;;14.40;6.80;;;;;;;10.49;60.94;99402.66;5009358;28;20045;-37
2023/11/11 11:20:58;;;;;;;15.13;7.45;;;;;;;10.47;61.86;99446.88;5033517;28;20616;-38
2023/11/11 11:23:24;;;;;;;20.70;7.80;;;;;;;10.27;61.96;99441.56;5033743;28;20140;-37
2023/11/11 11:25:51;;;;;;;15.40;7.15;;;;;;;10.09;62.75;99445.69;5031948;28;20124;-38
2023/11/11 11:28:25;;;;;;;18.73;7.78;;;;;;;10.06;62.93;99443.19;5033868;28;20116;-36
2023/11/11 11:30:55;;;;;;;19.83;7.78;;;;;;;10.01;62.86;99450.28;5032836;28;20045;-37
2023/11/11 11:33:35;;;;;;;11.93;7.13;;;;;;;9.95;63.12;99442.72;5033069;28;20045;-36
2023/11/11 11:36:06;;;;;;;13.85;6.22;;;;;;;9.91;63.57;99448.91;5046507;28;20068;-36